Flight Track Log - Related Links

Times and Time Zones

All times are in EDT time to prevent confusion due to time zone crossing. See the AWE1262 flight status page for this flight to view local times or setup timezone preferences in your user account.

Time Position Orientation Groundspeed Altitude Reporting Facility
EDT Latitude Longitude Course Direction KTS km/h feet Rate Location/Type
Fri 21:44:17 39.8833 -75.2167 37° Northeast 147 272 900  Level Philadelphia TRACON
Fri 21:44:59 39.8667 -75.1833 123° Southeast 171 317 2,500 2,611 Climbing Philadelphia TRACON
Fri 21:46:00 39.8104 -74.8351 105° East  Level FlightAware Approximate
Fri 21:46:05 39.8667 -75.1000 90° East 203 377 5,600  Level Philadelphia TRACON
Fri 21:47:00 39.7836 -74.7013 105° East  Level FlightAware Approximate
Fri 21:47:05 39.8500 -75.0167 105° East 271 502 8,900  Level Philadelphia TRACON
Fri 21:48:00 39.8667 -74.6167 37° Northeast  Level FlightAware Approximate
Fri 21:49:00 39.9544 -74.5456 37° Northeast  Level FlightAware Approximate
Fri 21:49:34 39.8028 -74.7456 103° East 328 607 14,800  Level New York Center
Fri 21:50:35 39.8625 -74.6436 53° Northeast 320 592 17,700 2,628 Climbing New York Center
Fri 21:51:35 39.9481 -74.5697 34° Northeast 326 604 20,100 2,471 Climbing New York Center
Fri 21:52:34 40.0408 -74.4744 38° Northeast 362 671 22,600 2,250 Climbing New York Center
Fri 21:53:35 40.1269 -74.3869 38° Northeast 382 708 24,600 1,835 Climbing New York Center
Fri 21:54:35 40.2347 -74.3408 18° North 387 716 26,300 1,881 Climbing New York Center
Fri 21:55:33 40.3458 -74.3167 North 392 726 28,300 1,361 Climbing New York Center
Fri 21:56:34 40.4592 -74.2925 North 398 737 29,000 271 Climbing New York Center
Fri 21:58:08 40.6481 -74.2289 14° North 426 789 29,000  Level Boston Center
Fri 21:59:08 40.7389 -74.1467 34° Northeast 433 801 29,000  Level Boston Center
Fri 22:00:08 40.8564 -74.0975 18° North 433 801 29,000  Level Boston Center
Fri 22:01:08 40.9775 -74.0786 North 428 793 29,000  Level Boston Center
Fri 22:02:08 41.0986 -74.0597 North 428 793 29,000  Level Boston Center
Fri 22:03:08 41.2200 -74.0406 North 428 793 29,000  Level Boston Center
Fri 22:04:08 41.3411 -74.0217 North 433 801 29,000  Level Boston Center
Fri 22:05:08 41.4544 -73.9633 21° North 427 790 29,000  Level Boston Center
Fri 22:06:08 41.5428 -73.9044 27° Northeast 433 801 29,000  Level Boston Center
Fri 22:07:08 41.6753 -73.8103 28° Northeast 438 811 29,000  Level Boston Center
Fri 22:08:08 41.7822 -73.7403 26° Northeast 438 811 29,000  Level Boston Center
Fri 22:09:08 41.8978 -73.6617 27° Northeast 429 795 29,000  Level Boston Center
Fri 22:10:08 42.0069 -73.5883 27° Northeast 429 795 29,000  Level Boston Center
Fri 22:11:08 42.1078 -73.5147 28° Northeast 441 816 29,000 -750 Level Boston Center
Fri 22:12:08 42.2167 -73.4381 28° Northeast 441 816 27,500 -1,500 Descending Boston Center
Fri 22:13:08 42.3194 -73.3667 27° Northeast 425 787 26,000 -1,450 Descending Boston Center
Fri 22:14:08 42.4222 -73.2922 28° Northeast 410 760 24,600 -1,450 Descending Boston Center
Fri 22:15:08 42.5206 -73.2203 28° Northeast 410 760 23,100 -1,950 Descending Boston Center
Fri 22:16:08 42.5964 -73.1169 45° Northeast 400 740 20,700 -1,900 Descending Boston Center
Fri 22:17:08 42.6306 -72.9706 72° East 363 673 19,300 -1,350 Descending Boston Center
Fri 22:18:08 42.6539 -72.8494 75° East 356 660 18,000 -1,350 Descending Boston Center
Fri 22:19:08 42.6772 -72.7111 77° East 362 671 16,600 -1,350 Descending Boston Center
Fri 22:20:08 42.7047 -72.5756 75° East 367 679 15,300 -1,300 Descending Boston Center
Fri 22:21:08 42.7275 -72.4458 77° East 362 671 14,000 -1,200 Descending Boston Center
Fri 22:22:08 42.7506 -72.3269 75° East 341 631 12,900 -1,250 Descending Boston Center
Fri 22:23:08 42.7731 -72.1883 77° East 333 616 11,500 -1,200 Descending Boston Center
Fri 22:24:08 42.7917 -72.0892 76° East 328 607 10,500 -1,150 Descending Boston Center
Fri 22:25:08 42.8267 -71.9842 66° East 283 525 9,200 -1,300 Descending Boston Center
Fri 22:26:08 42.8619 -71.9047 59° Northeast 261 483 7,900 -1,650 Descending Boston Center
Fri 22:27:08 42.9031 -71.8136 58° Northeast 256 475 5,900 -1,850 Descending Boston Center
Fri 22:28:08 42.9358 -71.7397 59° Northeast 256 475 4,200 -1,050 Descending Boston Center
Fri 22:29:08 42.9728 -71.6542 59° Northeast 245 454 3,800 -600 Descending Boston Center
Fri 22:30:08 42.9953 -71.5914 64° Northeast 223 414 3,000 -800 Descending Boston Center

Login

Don't have an account? Register now (free) for customized features, flight alerts, and more!